sensor_id;sensor_type;location;lat;lon;timestamp;P1;durP1;ratioP1;P2;durP2;ratioP2
81714;SDS011;71125;44.066;2.982;2024-01-15T00:01:58;20.88;;;9.75;;
81714;SDS011;71125;44.066;2.982;2024-01-15T00:04:24;21.83;;;9.45;;
81714;SDS011;71125;44.066;2.982;2024-01-15T00:06:50;21.40;;;9.13;;
81714;SDS011;71125;44.066;2.982;2024-01-15T00:09:16;27.13;;;10.80;;
81714;SDS011;71125;44.066;2.982;2024-01-15T00:11:42;15.02;;;6.65;;
81714;SDS011;71125;44.066;2.982;2024-01-15T00:14:08;16.30;;;7.25;;
81714;SDS011;71125;44.066;2.982;2024-01-15T00:16:34;23.08;;;10.48;;
81714;SDS011;71125;44.066;2.982;2024-01-15T00:19:00;21.55;;;9.18;;
81714;SDS011;71125;44.066;2.982;2024-01-15T00:21:26;15.02;;;6.55;;
81714;SDS011;71125;44.066;2.982;2024-01-15T00:23:53;18.05;;;6.57;;
81714;SDS011;71125;44.066;2.982;2024-01-15T00:28:45;17.90;;;7.40;;
81714;SDS011;71125;44.066;2.982;2024-01-15T00:31:11;14.88;;;6.90;;
81714;SDS011;71125;44.066;2.982;2024-01-15T00:33:37;13.20;;;6.70;;
81714;SDS011;71125;44.066;2.982;2024-01-15T00:36:03;15.70;;;6.72;;
81714;SDS011;71125;44.066;2.982;2024-01-15T00:38:29;14.45;;;7.45;;
81714;SDS011;71125;44.066;2.982;2024-01-15T00:40:55;15.60;;;7.95;;
81714;SDS011;71125;44.066;2.982;2024-01-15T00:43:21;16.65;;;7.80;;
81714;SDS011;71125;44.066;2.982;2024-01-15T00:45:47;13.65;;;6.75;;
81714;SDS011;71125;44.066;2.982;2024-01-15T00:48:13;15.52;;;7.22;;
81714;SDS011;71125;44.066;2.982;2024-01-15T00:50:39;18.40;;;7.25;;
81714;SDS011;71125;44.066;2.982;2024-01-15T00:53:05;22.88;;;7.05;;
81714;SDS011;71125;44.066;2.982;2024-01-15T00:55:31;17.38;;;6.55;;
81714;SDS011;71125;44.066;2.982;2024-01-15T00:57:57;11.95;;;5.63;;
81714;SDS011;71125;44.066;2.982;2024-01-15T01:00:23;17.05;;;6.63;;
81714;SDS011;71125;44.066;2.982;2024-01-15T01:02:49;13.07;;;5.85;;
81714;SDS011;71125;44.066;2.982;2024-01-15T01:05:15;13.07;;;6.05;;
81714;SDS011;71125;44.066;2.982;2024-01-15T01:07:41;16.38;;;6.95;;
81714;SDS011;71125;44.066;2.982;2024-01-15T01:10:07;7.85;;;3.55;;
81714;SDS011;71125;44.066;2.982;2024-01-15T01:12:33;13.55;;;6.78;;
81714;SDS011;71125;44.066;2.982;2024-01-15T01:14:59;17.13;;;6.57;;
81714;SDS011;71125;44.066;2.982;2024-01-15T01:17:26;11.95;;;5.85;;
81714;SDS011;71125;44.066;2.982;2024-01-15T01:19:52;11.75;;;5.88;;
81714;SDS011;71125;44.066;2.982;2024-01-15T01:22:18;13.75;;;5.28;;
81714;SDS011;71125;44.066;2.982;2024-01-15T01:24:43;12.85;;;5.28;;
81714;SDS011;71125;44.066;2.982;2024-01-15T01:27:09;13.10;;;5.65;;
81714;SDS011;71125;44.066;2.982;2024-01-15T01:29:35;16.80;;;6.63;;
81714;SDS011;71125;44.066;2.982;2024-01-15T01:32:01;11.52;;;5.45;;
81714;SDS011;71125;44.066;2.982;2024-01-15T01:34:28;12.32;;;5.72;;
81714;SDS011;71125;44.066;2.982;2024-01-15T01:36:55;14.10;;;5.38;;
81714;SDS011;71125;44.066;2.982;2024-01-15T01:39:21;20.15;;;6.05;;
81714;SDS011;71125;44.066;2.982;2024-01-15T01:41:47;11.07;;;5.47;;
81714;SDS011;71125;44.066;2.982;2024-01-15T01:44:13;12.23;;;5.53;;
81714;SDS011;71125;44.066;2.982;2024-01-15T01:46:39;12.25;;;5.57;;
81714;SDS011;71125;44.066;2.982;2024-01-15T01:49:05;12.75;;;5.57;;
81714;SDS011;71125;44.066;2.982;2024-01-15T01:51:32;9.95;;;5.30;;
81714;SDS011;71125;44.066;2.982;2024-01-15T01:53:59;9.02;;;4.93;;
81714;SDS011;71125;44.066;2.982;2024-01-15T01:56:26;5.72;;;2.47;;
81714;SDS011;71125;44.066;2.982;2024-01-15T01:58:52;10.90;;;4.82;;
81714;SDS011;71125;44.066;2.982;2024-01-15T02:01:18;12.73;;;5.35;;
81714;SDS011;71125;44.066;2.982;2024-01-15T02:03:44;22.33;;;8.90;;
81714;SDS011;71125;44.066;2.982;2024-01-15T02:06:10;74.85;;;25.73;;
81714;SDS011;71125;44.066;2.982;2024-01-15T02:08:37;53.10;;;18.70;;
81714;SDS011;71125;44.066;2.982;2024-01-15T02:11:03;29.23;;;10.18;;
81714;SDS011;71125;44.066;2.982;2024-01-15T02:13:29;31.13;;;12.15;;
81714;SDS011;71125;44.066;2.982;2024-01-15T02:15:56;26.85;;;10.07;;
81714;SDS011;71125;44.066;2.982;2024-01-15T02:18:22;18.20;;;8.32;;
81714;SDS011;71125;44.066;2.982;2024-01-15T02:20:48;12.95;;;6.38;;
81714;SDS011;71125;44.066;2.982;2024-01-15T02:23:14;19.55;;;7.45;;
81714;SDS011;71125;44.066;2.982;2024-01-15T02:25:41;11.82;;;5.43;;
81714;SDS011;71125;44.066;2.982;2024-01-15T02:28:09;12.07;;;4.65;;
81714;SDS011;71125;44.066;2.982;2024-01-15T02:30:39;14.27;;;6.03;;
81714;SDS011;71125;44.066;2.982;2024-01-15T02:33:05;7.57;;;3.97;;
81714;SDS011;71125;44.066;2.982;2024-01-15T02:37:58;16.73;;;6.68;;
81714;SDS011;71125;44.066;2.982;2024-01-15T02:40:24;35.67;;;13.80;;
81714;SDS011;71125;44.066;2.982;2024-01-15T02:42:50;23.15;;;8.27;;
81714;SDS011;71125;44.066;2.982;2024-01-15T02:45:16;25.02;;;10.80;;
81714;SDS011;71125;44.066;2.982;2024-01-15T02:47:42;27.85;;;9.85;;
81714;SDS011;71125;44.066;2.982;2024-01-15T02:50:08;19.65;;;8.85;;
81714;SDS011;71125;44.066;2.982;2024-01-15T02:52:34;20.13;;;8.55;;
81714;SDS011;71125;44.066;2.982;2024-01-15T02:55:00;14.48;;;6.45;;
81714;SDS011;71125;44.066;2.982;2024-01-15T02:57:26;16.73;;;7.53;;
81714;SDS011;71125;44.066;2.982;2024-01-15T02:59:52;17.50;;;8.25;;
81714;SDS011;71125;44.066;2.982;2024-01-15T03:02:18;17.95;;;7.35;;
81714;SDS011;71125;44.066;2.982;2024-01-15T03:04:45;21.20;;;9.15;;
81714;SDS011;71125;44.066;2.982;2024-01-15T03:07:11;17.77;;;8.52;;
81714;SDS011;71125;44.066;2.982;2024-01-15T03:09:37;20.98;;;8.15;;
81714;SDS011;71125;44.066;2.982;2024-01-15T03:12:03;16.30;;;7.75;;
81714;SDS011;71125;44.066;2.982;2024-01-15T03:14:29;20.95;;;8.55;;
81714;SDS011;71125;44.066;2.982;2024-01-15T03:16:55;20.88;;;8.18;;
81714;SDS011;71125;44.066;2.982;2024-01-15T03:19:21;13.00;;;7.03;;
81714;SDS011;71125;44.066;2.982;2024-01-15T03:21:48;16.67;;;7.03;;
81714;SDS011;71125;44.066;2.982;2024-01-15T03:24:14;15.00;;;6.38;;
81714;SDS011;71125;44.066;2.982;2024-01-15T03:26:40;16.25;;;6.75;;
81714;SDS011;71125;44.066;2.982;2024-01-15T03:29:06;21.38;;;7.70;;
81714;SDS011;71125;44.066;2.982;2024-01-15T03:31:32;16.33;;;7.38;;
81714;SDS011;71125;44.066;2.982;2024-01-15T03:33:58;21.08;;;8.55;;
81714;SDS011;71125;44.066;2.982;2024-01-15T03:36:24;21.98;;;9.48;;
81714;SDS011;71125;44.066;2.982;2024-01-15T03:38:50;22.27;;;9.68;;
81714;SDS011;71125;44.066;2.982;2024-01-15T03:41:16;20.00;;;10.25;;
81714;SDS011;71125;44.066;2.982;2024-01-15T03:43:42;18.38;;;9.23;;
81714;SDS011;71125;44.066;2.982;2024-01-15T03:46:08;21.63;;;9.55;;
81714;SDS011;71125;44.066;2.982;2024-01-15T03:48:34;18.88;;;9.48;;
81714;SDS011;71125;44.066;2.982;2024-01-15T03:51:00;26.25;;;10.70;;
81714;SDS011;71125;44.066;2.982;2024-01-15T03:53:26;21.85;;;10.00;;
81714;SDS011;71125;44.066;2.982;2024-01-15T03:55:52;21.77;;;10.30;;
81714;SDS011;71125;44.066;2.982;2024-01-15T03:58:18;23.13;;;8.68;;
81714;SDS011;71125;44.066;2.982;2024-01-15T04:00:44;20.95;;;9.10;;
81714;SDS011;71125;44.066;2.982;2024-01-15T04:03:10;15.80;;;7.20;;
81714;SDS011;71125;44.066;2.982;2024-01-15T04:05:36;17.08;;;8.05;;
81714;SDS011;71125;44.066;2.982;2024-01-15T04:08:02;17.95;;;8.10;;
81714;SDS011;71125;44.066;2.982;2024-01-15T04:10:28;18.67;;;8.95;;
81714;SDS011;71125;44.066;2.982;2024-01-15T04:12:54;18.30;;;8.32;;
81714;SDS011;71125;44.066;2.982;2024-01-15T04:15:20;15.55;;;8.90;;
81714;SDS011;71125;44.066;2.982;2024-01-15T04:17:46;20.15;;;9.10;;
81714;SDS011;71125;44.066;2.982;2024-01-15T04:20:12;16.63;;;7.97;;
81714;SDS011;71125;44.066;2.982;2024-01-15T04:22:38;17.20;;;8.82;;
81714;SDS011;71125;44.066;2.982;2024-01-15T04:25:04;17.95;;;7.80;;
81714;SDS011;71125;44.066;2.982;2024-01-15T04:27:31;22.42;;;8.40;;
81714;SDS011;71125;44.066;2.982;2024-01-15T04:29:57;18.45;;;8.35;;
81714;SDS011;71125;44.066;2.982;2024-01-15T04:32:23;15.48;;;7.28;;
81714;SDS011;71125;44.066;2.982;2024-01-15T04:34:49;17.60;;;9.55;;
81714;SDS011;71125;44.066;2.982;2024-01-15T04:37:15;16.70;;;8.57;;
81714;SDS011;71125;44.066;2.982;2024-01-15T04:39:41;17.48;;;8.50;;
81714;SDS011;71125;44.066;2.982;2024-01-15T04:42:07;19.17;;;9.10;;
81714;SDS011;71125;44.066;2.982;2024-01-15T04:46:59;18.00;;;8.35;;
81714;SDS011;71125;44.066;2.982;2024-01-15T04:49:25;16.42;;;7.45;;
81714;SDS011;71125;44.066;2.982;2024-01-15T04:51:52;23.17;;;7.07;;
81714;SDS011;71125;44.066;2.982;2024-01-15T04:54:18;12.82;;;6.68;;
81714;SDS011;71125;44.066;2.982;2024-01-15T04:56:45;13.82;;;7.35;;
81714;SDS011;71125;44.066;2.982;2024-01-15T04:59:12;20.73;;;8.23;;
81714;SDS011;71125;44.066;2.982;2024-01-15T05:01:38;17.85;;;9.35;;
81714;SDS011;71125;44.066;2.982;2024-01-15T05:04:04;17.08;;;8.43;;
81714;SDS011;71125;44.066;2.982;2024-01-15T05:06:30;18.60;;;9.02;;
81714;SDS011;71125;44.066;2.982;2024-01-15T05:08:56;20.92;;;9.73;;
81714;SDS011;71125;44.066;2.982;2024-01-15T05:11:22;27.30;;;11.07;;
81714;SDS011;71125;44.066;2.982;2024-01-15T05:13:48;20.38;;;9.23;;
81714;SDS011;71125;44.066;2.982;2024-01-15T05:16:14;27.58;;;11.45;;
81714;SDS011;71125;44.066;2.982;2024-01-15T05:18:40;20.20;;;9.73;;
81714;SDS011;71125;44.066;2.982;2024-01-15T05:21:08;21.52;;;9.63;;
81714;SDS011;71125;44.066;2.982;2024-01-15T05:23:34;22.63;;;10.88;;
81714;SDS011;71125;44.066;2.982;2024-01-15T05:26:01;25.55;;;11.63;;
81714;SDS011;71125;44.066;2.982;2024-01-15T05:28:27;20.88;;;10.27;;
81714;SDS011;71125;44.066;2.982;2024-01-15T05:30:53;17.40;;;8.65;;
81714;SDS011;71125;44.066;2.982;2024-01-15T05:33:20;19.33;;;9.10;;
81714;SDS011;71125;44.066;2.982;2024-01-15T05:35:47;22.67;;;9.57;;
81714;SDS011;71125;44.066;2.982;2024-01-15T05:38:15;18.35;;;7.55;;
81714;SDS011;71125;44.066;2.982;2024-01-15T05:40:41;15.10;;;6.85;;
81714;SDS011;71125;44.066;2.982;2024-01-15T05:43:07;16.13;;;5.80;;
81714;SDS011;71125;44.066;2.982;2024-01-15T05:45:34;15.23;;;7.22;;
81714;SDS011;71125;44.066;2.982;2024-01-15T05:48:03;16.20;;;6.22;;
81714;SDS011;71125;44.066;2.982;2024-01-15T05:50:29;17.48;;;8.00;;
81714;SDS011;71125;44.066;2.982;2024-01-15T05:52:55;24.52;;;8.57;;
81714;SDS011;71125;44.066;2.982;2024-01-15T05:55:21;10.30;;;5.60;;
81714;SDS011;71125;44.066;2.982;2024-01-15T05:57:47;18.33;;;7.75;;
81714;SDS011;71125;44.066;2.982;2024-01-15T06:00:13;20.65;;;8.98;;
81714;SDS011;71125;44.066;2.982;2024-01-15T06:02:40;23.95;;;9.55;;
81714;SDS011;71125;44.066;2.982;2024-01-15T06:05:06;28.10;;;8.90;;
81714;SDS011;71125;44.066;2.982;2024-01-15T06:09:58;13.95;;;6.25;;
81714;SDS011;71125;44.066;2.982;2024-01-15T06:12:24;20.02;;;8.68;;
81714;SDS011;71125;44.066;2.982;2024-01-15T06:14:50;21.52;;;9.38;;
81714;SDS011;71125;44.066;2.982;2024-01-15T06:17:17;18.23;;;8.18;;
81714;SDS011;71125;44.066;2.982;2024-01-15T06:22:09;19.83;;;9.75;;
81714;SDS011;71125;44.066;2.982;2024-01-15T06:24:35;22.80;;;11.30;;
81714;SDS011;71125;44.066;2.982;2024-01-15T06:27:01;32.65;;;12.55;;
81714;SDS011;71125;44.066;2.982;2024-01-15T06:29:27;26.95;;;11.50;;
81714;SDS011;71125;44.066;2.982;2024-01-15T06:31:53;25.20;;;12.40;;
81714;SDS011;71125;44.066;2.982;2024-01-15T06:34:20;21.65;;;10.43;;
81714;SDS011;71125;44.066;2.982;2024-01-15T06:36:46;25.23;;;11.07;;
81714;SDS011;71125;44.066;2.982;2024-01-15T06:39:12;21.25;;;9.57;;
81714;SDS011;71125;44.066;2.982;2024-01-15T06:41:38;28.67;;;9.80;;
81714;SDS011;71125;44.066;2.982;2024-01-15T06:44:11;23.00;;;9.93;;
81714;SDS011;71125;44.066;2.982;2024-01-15T06:46:43;19.42;;;8.73;;
81714;SDS011;71125;44.066;2.982;2024-01-15T06:49:09;19.92;;;9.32;;
81714;SDS011;71125;44.066;2.982;2024-01-15T06:51:36;11.82;;;5.95;;
81714;SDS011;71125;44.066;2.982;2024-01-15T06:54:02;13.27;;;5.60;;
81714;SDS011;71125;44.066;2.982;2024-01-15T06:56:28;13.25;;;6.55;;
81714;SDS011;71125;44.066;2.982;2024-01-15T06:58:54;14.15;;;6.53;;
81714;SDS011;71125;44.066;2.982;2024-01-15T07:01:20;13.98;;;6.85;;
81714;SDS011;71125;44.066;2.982;2024-01-15T07:03:46;21.50;;;8.70;;
81714;SDS011;71125;44.066;2.982;2024-01-15T07:06:12;18.50;;;6.93;;
81714;SDS011;71125;44.066;2.982;2024-01-15T07:08:39;14.50;;;6.55;;
81714;SDS011;71125;44.066;2.982;2024-01-15T07:11:05;19.05;;;7.30;;
81714;SDS011;71125;44.066;2.982;2024-01-15T07:13:31;14.27;;;5.72;;
81714;SDS011;71125;44.066;2.982;2024-01-15T07:15:57;15.18;;;6.35;;
81714;SDS011;71125;44.066;2.982;2024-01-15T07:18:23;13.10;;;6.50;;
81714;SDS011;71125;44.066;2.982;2024-01-15T07:20:50;15.60;;;7.28;;
81714;SDS011;71125;44.066;2.982;2024-01-15T07:23:16;15.82;;;6.43;;
81714;SDS011;71125;44.066;2.982;2024-01-15T07:25:42;17.02;;;6.75;;
81714;SDS011;71125;44.066;2.982;2024-01-15T07:28:08;22.17;;;12.13;;
81714;SDS011;71125;44.066;2.982;2024-01-15T07:30:35;23.38;;;11.02;;
81714;SDS011;71125;44.066;2.982;2024-01-15T07:33:03;32.15;;;16.17;;
81714;SDS011;71125;44.066;2.982;2024-01-15T07:35:29;25.50;;;13.10;;
81714;SDS011;71125;44.066;2.982;2024-01-15T07:37:56;22.65;;;10.65;;
81714;SDS011;71125;44.066;2.982;2024-01-15T07:40:22;21.48;;;10.02;;
81714;SDS011;71125;44.066;2.982;2024-01-15T07:42:48;16.58;;;7.50;;
81714;SDS011;71125;44.066;2.982;2024-01-15T07:45:14;6.65;;;3.78;;
81714;SDS011;71125;44.066;2.982;2024-01-15T07:47:40;13.60;;;6.38;;
81714;SDS011;71125;44.066;2.982;2024-01-15T07:50:06;17.23;;;8.10;;
81714;SDS011;71125;44.066;2.982;2024-01-15T07:52:32;15.55;;;6.65;;
81714;SDS011;71125;44.066;2.982;2024-01-15T07:54:58;18.63;;;6.97;;
81714;SDS011;71125;44.066;2.982;2024-01-15T07:57:29;17.85;;;8.00;;
81714;SDS011;71125;44.066;2.982;2024-01-15T07:59:55;20.83;;;9.40;;
81714;SDS011;71125;44.066;2.982;2024-01-15T08:02:21;31.02;;;13.80;;
81714;SDS011;71125;44.066;2.982;2024-01-15T08:04:47;33.45;;;15.73;;
81714;SDS011;71125;44.066;2.982;2024-01-15T08:07:13;28.75;;;15.18;;
81714;SDS011;71125;44.066;2.982;2024-01-15T08:09:39;23.77;;;9.57;;
81714;SDS011;71125;44.066;2.982;2024-01-15T08:12:05;28.05;;;13.55;;
81714;SDS011;71125;44.066;2.982;2024-01-15T08:14:31;32.90;;;13.48;;
81714;SDS011;71125;44.066;2.982;2024-01-15T08:16:58;26.55;;;10.52;;
81714;SDS011;71125;44.066;2.982;2024-01-15T08:19:24;22.45;;;9.13;;
81714;SDS011;71125;44.066;2.982;2024-01-15T08:21:50;21.67;;;9.73;;
81714;SDS011;71125;44.066;2.982;2024-01-15T08:24:19;21.52;;;9.13;;
81714;SDS011;71125;44.066;2.982;2024-01-15T08:26:45;22.75;;;10.55;;
81714;SDS011;71125;44.066;2.982;2024-01-15T08:29:11;23.42;;;11.25;;
81714;SDS011;71125;44.066;2.982;2024-01-15T08:31:37;28.45;;;12.25;;
81714;SDS011;71125;44.066;2.982;2024-01-15T08:34:03;31.63;;;13.48;;
81714;SDS011;71125;44.066;2.982;2024-01-15T08:36:29;28.77;;;12.52;;
81714;SDS011;71125;44.066;2.982;2024-01-15T08:38:56;27.30;;;12.23;;
81714;SDS011;71125;44.066;2.982;2024-01-15T08:41:22;25.20;;;12.65;;
81714;SDS011;71125;44.066;2.982;2024-01-15T08:43:49;37.70;;;16.98;;
81714;SDS011;71125;44.066;2.982;2024-01-15T08:46:15;24.23;;;11.45;;
81714;SDS011;71125;44.066;2.982;2024-01-15T08:48:41;28.80;;;12.63;;
81714;SDS011;71125;44.066;2.982;2024-01-15T08:51:07;22.63;;;11.25;;
81714;SDS011;71125;44.066;2.982;2024-01-15T08:53:33;25.48;;;11.95;;
81714;SDS011;71125;44.066;2.982;2024-01-15T08:55:59;19.42;;;9.52;;
81714;SDS011;71125;44.066;2.982;2024-01-15T08:58:25;17.08;;;9.30;;
81714;SDS011;71125;44.066;2.982;2024-01-15T09:00:51;17.23;;;8.32;;
81714;SDS011;71125;44.066;2.982;2024-01-15T09:03:17;17.48;;;8.90;;
81714;SDS011;71125;44.066;2.982;2024-01-15T09:05:43;17.60;;;7.93;;
81714;SDS011;71125;44.066;2.982;2024-01-15T09:08:09;17.02;;;8.05;;
81714;SDS011;71125;44.066;2.982;2024-01-15T09:10:35;23.52;;;10.77;;
81714;SDS011;71125;44.066;2.982;2024-01-15T09:13:01;25.13;;;12.80;;
81714;SDS011;71125;44.066;2.982;2024-01-15T09:15:29;20.05;;;9.45;;
81714;SDS011;71125;44.066;2.982;2024-01-15T09:17:55;21.65;;;10.80;;
81714;SDS011;71125;44.066;2.982;2024-01-15T09:20:23;23.63;;;10.75;;
81714;SDS011;71125;44.066;2.982;2024-01-15T09:22:51;23.00;;;11.52;;
81714;SDS011;71125;44.066;2.982;2024-01-15T09:27:44;22.70;;;10.45;;
81714;SDS011;71125;44.066;2.982;2024-01-15T09:32:36;21.73;;;10.48;;
81714;SDS011;71125;44.066;2.982;2024-01-15T09:35:02;20.55;;;10.65;;
81714;SDS011;71125;44.066;2.982;2024-01-15T09:37:28;19.10;;;9.75;;
81714;SDS011;71125;44.066;2.982;2024-01-15T09:39:54;20.52;;;9.73;;
81714;SDS011;71125;44.066;2.982;2024-01-15T09:44:46;17.77;;;8.85;;
81714;SDS011;71125;44.066;2.982;2024-01-15T09:49:38;23.45;;;11.75;;
81714;SDS011;71125;44.066;2.982;2024-01-15T09:52:05;20.65;;;10.27;;
81714;SDS011;71125;44.066;2.982;2024-01-15T09:54:33;22.15;;;9.85;;
81714;SDS011;71125;44.066;2.982;2024-01-15T09:57:00;15.93;;;8.48;;
81714;SDS011;71125;44.066;2.982;2024-01-15T09:59:26;14.65;;;7.70;;
81714;SDS011;71125;44.066;2.982;2024-01-15T10:01:52;19.20;;;8.55;;
81714;SDS011;71125;44.066;2.982;2024-01-15T10:04:19;16.02;;;7.63;;
81714;SDS011;71125;44.066;2.982;2024-01-15T10:06:45;15.20;;;7.72;;
81714;SDS011;71125;44.066;2.982;2024-01-15T10:09:13;14.20;;;7.50;;
81714;SDS011;71125;44.066;2.982;2024-01-15T10:11:42;13.13;;;6.50;;
81714;SDS011;71125;44.066;2.982;2024-01-15T10:14:09;14.90;;;6.72;;
81714;SDS011;71125;44.066;2.982;2024-01-15T10:16:41;13.25;;;6.57;;
81714;SDS011;71125;44.066;2.982;2024-01-15T10:19:08;10.98;;;6.28;;
81714;SDS011;71125;44.066;2.982;2024-01-15T10:21:34;14.20;;;6.50;;
81714;SDS011;71125;44.066;2.982;2024-01-15T10:24:01;15.10;;;6.40;;
81714;SDS011;71125;44.066;2.982;2024-01-15T10:26:30;15.18;;;6.55;;
81714;SDS011;71125;44.066;2.982;2024-01-15T10:29:00;12.40;;;5.85;;
81714;SDS011;71125;44.066;2.982;2024-01-15T10:31:26;14.13;;;5.70;;
81714;SDS011;71125;44.066;2.982;2024-01-15T10:33:52;12.02;;;6.85;;
81714;SDS011;71125;44.066;2.982;2024-01-15T10:36:18;14.70;;;5.90;;
81714;SDS011;71125;44.066;2.982;2024-01-15T10:41:11;11.10;;;5.15;;
81714;SDS011;71125;44.066;2.982;2024-01-15T10:43:37;11.93;;;6.05;;
81714;SDS011;71125;44.066;2.982;2024-01-15T10:46:03;12.23;;;6.00;;
81714;SDS011;71125;44.066;2.982;2024-01-15T10:48:29;12.77;;;6.03;;
81714;SDS011;71125;44.066;2.982;2024-01-15T10:50:59;12.90;;;5.50;;
81714;SDS011;71125;44.066;2.982;2024-01-15T10:53:25;10.65;;;5.50;;
81714;SDS011;71125;44.066;2.982;2024-01-15T10:55:53;11.25;;;5.18;;
81714;SDS011;71125;44.066;2.982;2024-01-15T10:58:20;17.25;;;6.13;;
81714;SDS011;71125;44.066;2.982;2024-01-15T11:00:48;11.45;;;5.65;;
81714;SDS011;71125;44.066;2.982;2024-01-15T11:03:14;17.48;;;7.22;;
81714;SDS011;71125;44.066;2.982;2024-01-15T11:05:42;16.30;;;7.85;;
81714;SDS011;71125;44.066;2.982;2024-01-15T11:08:08;12.32;;;5.90;;
81714;SDS011;71125;44.066;2.982;2024-01-15T11:10:41;12.43;;;5.95;;
81714;SDS011;71125;44.066;2.982;2024-01-15T11:13:13;9.90;;;5.45;;
81714;SDS011;71125;44.066;2.982;2024-01-15T11:18:05;9.30;;;5.00;;
81714;SDS011;71125;44.066;2.982;2024-01-15T11:20:35;13.85;;;6.03;;
81714;SDS011;71125;44.066;2.982;2024-01-15T11:23:01;10.10;;;5.38;;
81714;SDS011;71125;44.066;2.982;2024-01-15T11:25:34;12.10;;;5.15;;
81714;SDS011;71125;44.066;2.982;2024-01-15T11:28:03;11.10;;;5.30;;
81714;SDS011;71125;44.066;2.982;2024-01-15T11:30:29;11.10;;;5.38;;
81714;SDS011;71125;44.066;2.982;2024-01-15T11:32:55;10.90;;;5.50;;
81714;SDS011;71125;44.066;2.982;2024-01-15T11:35:21;13.05;;;5.82;;
81714;SDS011;71125;44.066;2.982;2024-01-15T11:40:23;12.57;;;6.03;;
81714;SDS011;71125;44.066;2.982;2024-01-15T11:42:49;11.35;;;5.85;;
81714;SDS011;71125;44.066;2.982;2024-01-15T11:45:18;13.32;;;5.50;;
81714;SDS011;71125;44.066;2.982;2024-01-15T11:50:19;9.35;;;4.75;;
81714;SDS011;71125;44.066;2.982;2024-01-15T11:52:50;9.18;;;5.05;;
81714;SDS011;71125;44.066;2.982;2024-01-15T11:55:28;9.20;;;4.93;;
81714;SDS011;71125;44.066;2.982;2024-01-15T11:57:55;11.68;;;4.85;;
81714;SDS011;71125;44.066;2.982;2024-01-15T12:00:23;13.95;;;5.57;;
81714;SDS011;71125;44.066;2.982;2024-01-15T12:02:49;10.75;;;4.53;;
81714;SDS011;71125;44.066;2.982;2024-01-15T12:05:16;10.18;;;4.55;;
81714;SDS011;71125;44.066;2.982;2024-01-15T12:07:43;9.02;;;4.32;;
81714;SDS011;71125;44.066;2.982;2024-01-15T12:17:46;12.27;;;4.13;;
81714;SDS011;71125;44.066;2.982;2024-01-15T12:20:13;13.70;;;4.47;;
81714;SDS011;71125;44.066;2.982;2024-01-15T12:22:40;8.93;;;4.55;;
81714;SDS011;71125;44.066;2.982;2024-01-15T12:25:06;8.70;;;4.40;;
81714;SDS011;71125;44.066;2.982;2024-01-15T12:27:32;9.30;;;4.45;;
81714;SDS011;71125;44.066;2.982;2024-01-15T12:29:59;8.32;;;4.03;;
81714;SDS011;71125;44.066;2.982;2024-01-15T12:32:25;13.32;;;5.55;;
81714;SDS011;71125;44.066;2.982;2024-01-15T12:34:51;10.32;;;4.40;;
81714;SDS011;71125;44.066;2.982;2024-01-15T12:37:20;11.27;;;4.53;;
81714;SDS011;71125;44.066;2.982;2024-01-15T12:39:46;10.88;;;4.10;;
81714;SDS011;71125;44.066;2.982;2024-01-15T12:42:16;8.05;;;3.78;;
81714;SDS011;71125;44.066;2.982;2024-01-15T12:44:42;14.68;;;5.05;;
81714;SDS011;71125;44.066;2.982;2024-01-15T12:47:08;8.90;;;5.05;;
81714;SDS011;71125;44.066;2.982;2024-01-15T12:49:36;9.13;;;4.72;;
81714;SDS011;71125;44.066;2.982;2024-01-15T12:52:02;9.82;;;4.15;;
81714;SDS011;71125;44.066;2.982;2024-01-15T12:54:28;7.03;;;3.45;;
81714;SDS011;71125;44.066;2.982;2024-01-15T12:56:54;8.40;;;3.95;;
81714;SDS011;71125;44.066;2.982;2024-01-15T12:59:20;8.55;;;3.72;;
81714;SDS011;71125;44.066;2.982;2024-01-15T13:01:46;9.27;;;3.92;;
81714;SDS011;71125;44.066;2.982;2024-01-15T13:04:24;9.27;;;4.30;;
81714;SDS011;71125;44.066;2.982;2024-01-15T13:06:50;7.20;;;3.70;;
81714;SDS011;71125;44.066;2.982;2024-01-15T13:09:17;10.38;;;3.33;;
81714;SDS011;71125;44.066;2.982;2024-01-15T13:11:44;5.90;;;3.15;;
81714;SDS011;71125;44.066;2.982;2024-01-15T13:14:10;9.00;;;4.03;;
81714;SDS011;71125;44.066;2.982;2024-01-15T13:16:36;10.60;;;4.82;;
81714;SDS011;71125;44.066;2.982;2024-01-15T13:19:02;7.97;;;3.67;;
81714;SDS011;71125;44.066;2.982;2024-01-15T13:21:29;14.00;;;4.03;;
81714;SDS011;71125;44.066;2.982;2024-01-15T13:23:56;6.88;;;3.10;;
81714;SDS011;71125;44.066;2.982;2024-01-15T13:26:22;8.75;;;4.00;;
81714;SDS011;71125;44.066;2.982;2024-01-15T13:28:49;6.70;;;3.33;;
81714;SDS011;71125;44.066;2.982;2024-01-15T13:31:16;8.48;;;3.72;;
81714;SDS011;71125;44.066;2.982;2024-01-15T13:33:42;7.68;;;3.83;;
81714;SDS011;71125;44.066;2.982;2024-01-15T13:36:08;6.70;;;3.17;;
81714;SDS011;71125;44.066;2.982;2024-01-15T13:38:36;8.43;;;4.43;;
81714;SDS011;71125;44.066;2.982;2024-01-15T13:41:03;6.13;;;3.63;;
81714;SDS011;71125;44.066;2.982;2024-01-15T13:43:31;10.13;;;3.90;;
81714;SDS011;71125;44.066;2.982;2024-01-15T13:45:57;7.90;;;3.22;;
81714;SDS011;71125;44.066;2.982;2024-01-15T13:48:23;9.20;;;3.30;;
81714;SDS011;71125;44.066;2.982;2024-01-15T13:50:49;8.00;;;3.83;;
81714;SDS011;71125;44.066;2.982;2024-01-15T13:53:16;10.60;;;4.30;;
81714;SDS011;71125;44.066;2.982;2024-01-15T13:55:42;11.32;;;4.80;;
81714;SDS011;71125;44.066;2.982;2024-01-15T13:58:08;8.32;;;4.30;;
81714;SDS011;71125;44.066;2.982;2024-01-15T14:00:34;8.52;;;3.50;;
81714;SDS011;71125;44.066;2.982;2024-01-15T14:03:00;7.90;;;3.55;;
81714;SDS011;71125;44.066;2.982;2024-01-15T14:05:26;7.05;;;3.63;;
81714;SDS011;71125;44.066;2.982;2024-01-15T14:07:52;11.75;;;4.95;;
81714;SDS011;71125;44.066;2.982;2024-01-15T14:10:18;8.10;;;3.63;;
81714;SDS011;71125;44.066;2.982;2024-01-15T14:12:44;8.68;;;4.03;;
81714;SDS011;71125;44.066;2.982;2024-01-15T14:15:10;17.08;;;6.68;;
81714;SDS011;71125;44.066;2.982;2024-01-15T14:17:36;10.68;;;4.30;;
81714;SDS011;71125;44.066;2.982;2024-01-15T14:20:03;8.85;;;4.13;;
81714;SDS011;71125;44.066;2.982;2024-01-15T14:22:30;8.65;;;4.07;;
81714;SDS011;71125;44.066;2.982;2024-01-15T14:24:56;9.38;;;4.30;;
81714;SDS011;71125;44.066;2.982;2024-01-15T14:27:22;9.70;;;3.80;;
81714;SDS011;71125;44.066;2.982;2024-01-15T14:29:48;7.65;;;3.80;;
81714;SDS011;71125;44.066;2.982;2024-01-15T14:32:14;8.77;;;4.30;;
81714;SDS011;71125;44.066;2.982;2024-01-15T14:34:40;7.15;;;3.50;;
81714;SDS011;71125;44.066;2.982;2024-01-15T14:37:06;9.10;;;3.95;;
81714;SDS011;71125;44.066;2.982;2024-01-15T14:39:32;6.15;;;3.72;;
81714;SDS011;71125;44.066;2.982;2024-01-15T14:41:59;7.20;;;3.80;;
81714;SDS011;71125;44.066;2.982;2024-01-15T14:44:26;8.07;;;3.80;;
81714;SDS011;71125;44.066;2.982;2024-01-15T14:46:53;9.45;;;3.80;;
81714;SDS011;71125;44.066;2.982;2024-01-15T14:49:20;8.15;;;3.67;;
81714;SDS011;71125;44.066;2.982;2024-01-15T14:51:46;9.73;;;3.75;;
81714;SDS011;71125;44.066;2.982;2024-01-15T14:54:14;6.95;;;3.30;;
81714;SDS011;71125;44.066;2.982;2024-01-15T14:56:40;7.70;;;3.78;;
81714;SDS011;71125;44.066;2.982;2024-01-15T14:59:07;14.98;;;5.78;;
81714;SDS011;71125;44.066;2.982;2024-01-15T15:01:33;10.70;;;5.05;;
81714;SDS011;71125;44.066;2.982;2024-01-15T15:03:59;12.15;;;4.47;;
81714;SDS011;71125;44.066;2.982;2024-01-15T15:06:25;13.82;;;5.40;;
81714;SDS011;71125;44.066;2.982;2024-01-15T15:08:53;9.32;;;4.53;;
81714;SDS011;71125;44.066;2.982;2024-01-15T15:11:24;7.50;;;3.80;;